Time;durP1;ratioP1;P1;durP2;ratioP2;P2;SDS_P1;SDS_P2;PMS_P1;PMS_P2;Temp;Humidity;BMP_temperature;BMP_pressure;BME280_temperature;BME280_humidity;BME280_pressure;Samples;Min_cycle;Max_cycle;Signal;HPM_P1;HPM_P2
2023/05/09 00:01:38;;;;;;;2.08;1.10;;;;;;;14.02;72.89;101666.81;6277999;28;20041;-74
2023/05/09 00:04:40;;;;;;;2.80;1.60;;;;;;;14.04;73.73;101667.59;6277671;28;20357;-74
2023/05/09 00:07:41;;;;;;;1.15;1.05;;;;;;;14.04;73.78;101670.25;6277731;28;20080;-75
2023/05/09 00:10:44;;;;;;;5.35;1.42;;;;;;;13.92;73.44;101663.78;6277471;28;20045;-74
2023/05/09 00:13:46;;;;;;;3.05;1.40;;;;;;;13.87;73.65;101663.19;6277505;28;20049;-74
2023/05/09 00:16:47;;;;;;;2.38;1.35;;;;;;;13.82;73.36;101665.22;6277363;28;20357;-74
2023/05/09 00:19:49;;;;;;;1.90;1.27;;;;;;;13.69;72.06;101654.44;6277466;28;20178;-74
2023/05/09 00:22:51;;;;;;;1.58;1.17;;;;;;;13.70;73.84;101656.13;6277113;28;20045;-74
2023/05/09 00:25:53;;;;;;;3.13;1.50;;;;;;;13.70;74.20;101653.50;6277235;28;20052;-74
2023/05/09 00:28:55;;;;;;;2.88;1.38;;;;;;;13.64;73.68;101653.81;6277197;28;20045;-74
2023/05/09 00:31:56;;;;;;;2.47;1.20;;;;;;;13.66;75.65;101655.44;6276824;28;20049;-74
2023/05/09 00:34:58;;;;;;;6.95;1.77;;;;;;;13.66;74.46;101649.28;6277254;28;20056;-74
2023/05/09 00:37:59;;;;;;;2.00;1.20;;;;;;;13.66;74.29;101649.28;6276729;28;20068;-74
2023/05/09 00:41:02;;;;;;;2.17;1.42;;;;;;;13.62;74.88;101640.66;6277243;28;20053;-74
2023/05/09 00:44:03;;;;;;;2.88;1.33;;;;;;;13.53;72.96;101641.13;6276639;28;20425;-74
2023/05/09 00:47:05;;;;;;;1.73;1.48;;;;;;;13.57;73.99;101637.41;6276794;28;20060;-74
2023/05/09 00:50:08;;;;;;;3.10;1.30;;;;;;;13.53;74.78;101629.72;6276451;28;20049;-74
2023/05/09 00:53:10;;;;;;;2.20;1.35;;;;;;;13.41;73.78;101631.22;6276976;28;20060;-74
2023/05/09 00:56:14;;;;;;;2.42;1.65;;;;;;;13.36;75.47;101627.97;6276471;28;20071;-74
2023/05/09 00:59:16;;;;;;;3.13;1.10;;;;;;;13.32;74.81;101626.41;6274113;28;20071;-74
2023/05/09 01:02:18;;;;;;;2.45;1.35;;;;;;;13.25;75.43;101622.38;6274333;28;20041;-74
2023/05/09 01:05:21;;;;;;;2.72;1.30;;;;;;;13.26;76.52;101624.91;6276608;28;20045;-74
2023/05/09 01:08:34;;;;;;;4.55;1.92;;;;;;;13.29;76.13;101621.28;6276103;28;20348;-74
2023/05/09 01:11:44;;;;;;;2.53;1.50;;;;;;;13.21;76.18;101605.78;6276377;28;20128;-74
2023/05/09 01:14:50;;;;;;;;;;;;;;;13.17;77.03;101598.97;6276560;28;20053;-74
2023/05/09 01:17:58;;;;;;;2.70;1.58;;;;;;;13.15;74.76;101601.69;6275887;28;20054;-74
2023/05/09 01:21:06;;;;;;;6.47;1.88;;;;;;;13.09;76.23;101598.50;6276183;28;20052;-74
2023/05/09 01:24:26;;;;;;;1.67;1.20;;;;;;;13.02;76.19;101591.81;6276034;28;20334;-74
2023/05/09 01:27:43;;;;;;;1.98;1.67;;;;;;;12.96;77.11;101590.34;6275862;28;20127;-74
2023/05/09 01:30:46;;;;;;;3.45;1.55;;;;;;;12.89;75.04;101589.78;6275856;28;20041;-74
2023/05/09 01:33:52;;;;;;;8.73;1.63;;;;;;;12.89;76.00;101589.78;6275078;28;20091;-74
2023/05/09 01:36:57;;;;;;;3.00;1.42;;;;;;;12.92;76.14;101583.50;6275863;28;20052;-74
2023/05/09 01:40:04;;;;;;;2.60;1.52;;;;;;;12.88;75.66;101581.94;6275453;28;20056;-74
2023/05/09 01:43:09;;;;;;;3.53;1.35;;;;;;;12.81;76.57;101581.41;6275865;28;20041;-74
2023/05/09 01:46:13;;;;;;;4.97;2.17;;;;;;;12.70;76.62;101578.44;6275229;28;20139;-74
2023/05/09 01:49:17;;;;;;;3.90;1.73;;;;;;;12.69;76.95;101582.00;6275403;28;20071;-74
2023/05/09 01:52:19;;;;;;;2.53;1.45;;;;;;;12.62;76.94;101578.78;6275432;28;20052;-74
2023/05/09 01:55:24;;;;;;;6.32;1.40;;;;;;;12.62;77.65;101575.31;6275227;28;20052;-74
2023/05/09 01:58:26;;;;;;;4.18;1.40;;;;;;;12.59;76.78;101572.84;6275175;28;20056;-74
2023/05/09 02:01:30;;;;;;;2.63;1.70;;;;;;;12.63;77.55;101580.53;6275175;28;20042;-74
2023/05/09 02:04:33;;;;;;;4.70;1.63;;;;;;;12.48;76.26;101580.41;6274070;28;20074;-74
2023/05/09 02:07:36;;;;;;;2.90;1.52;;;;;;;12.48;76.71;101572.50;6274915;28;20049;-74
2023/05/09 02:10:37;;;;;;;2.78;1.42;;;;;;;12.41;76.73;101575.44;6275189;28;20048;-74
2023/05/09 02:13:39;;;;;;;2.63;1.50;;;;;;;12.46;77.45;101566.44;6275145;28;20049;-74
2023/05/09 02:16:42;;;;;;;3.08;1.48;;;;;;;12.35;76.69;101565.19;6275182;28;20469;-74
2023/05/09 02:19:44;;;;;;;8.25;1.73;;;;;;;12.32;77.50;101570.59;6267983;28;20053;-74
2023/05/09 02:22:46;;;;;;;3.35;1.58;;;;;;;12.32;77.38;101570.59;6273408;28;20045;-74
2023/05/09 02:25:48;;;;;;;2.55;1.60;;;;;;;12.29;78.00;101562.81;6267761;28;20363;-74
2023/05/09 02:28:50;;;;;;;9.15;2.00;;;;;;;12.26;78.01;101562.09;6271212;28;20056;-74
2023/05/09 02:31:53;;;;;;;3.50;1.95;;;;;;;12.17;77.24;101559.00;6266412;28;20050;-74
2023/05/09 02:34:57;;;;;;;2.35;1.40;;;;;;;12.12;79.04;101558.34;6268148;28;20056;-74
2023/05/09 02:37:59;;;;;;;2.63;1.48;;;;;;;12.10;79.56;101557.56;6266852;28;20060;-74
2023/05/09 02:41:00;;;;;;;3.47;1.63;;;;;;;11.98;78.70;101552.00;6272679;28;20149;-74
2023/05/09 02:44:02;;;;;;;3.53;1.40;;;;;;;12.04;78.13;101554.38;6275828;28;20361;-74
2023/05/09 02:47:06;;;;;;;2.45;1.45;;;;;;;11.95;78.37;101550.38;6271064;28;20052;-74
2023/05/09 02:50:08;;;;;;;5.20;1.50;;;;;;;11.90;78.99;101547.13;6275554;28;20136;-74
2023/05/09 02:53:09;;;;;;;4.88;1.70;;;;;;;11.93;78.59;101546.94;6278219;28;20056;-74
2023/05/09 02:56:11;;;;;;;2.55;1.58;;;;;;;11.87;78.66;101548.09;6273720;28;20122;-74
2023/05/09 02:59:12;;;;;;;4.63;1.45;;;;;;;11.85;79.94;101538.53;6276773;28;20053;-75
2023/05/09 03:02:15;;;;;;;2.65;1.60;;;;;;;11.83;80.65;101546.53;6270969;28;20458;-74
2023/05/09 03:05:17;;;;;;;4.32;2.15;;;;;;;11.82;79.88;101550.09;6279148;28;20053;-73
2023/05/09 03:08:18;;;;;;;2.25;1.60;;;;;;;11.79;80.28;101536.16;6278993;28;20048;-74
2023/05/09 03:11:19;;;;;;;4.25;1.20;;;;;;;11.73;79.66;101537.31;6279110;28;20048;-74
2023/05/09 03:14:21;;;;;;;2.70;1.70;;;;;;;11.77;80.63;101536.25;6278918;28;20412;-74
2023/05/09 03:17:23;;;;;;;1.83;1.23;;;;;;;11.76;80.39;101534.50;6278492;28;20056;-74
2023/05/09 03:20:26;;;;;;;1.85;1.52;;;;;;;11.75;81.56;101521.44;6266881;28;20130;-73
2023/05/09 03:23:28;;;;;;;7.70;1.83;;;;;;;11.63;80.13;101536.88;6259017;28;20040;-74
2023/05/09 03:26:30;;;;;;;3.20;1.60;;;;;;;11.58;82.34;101525.69;6260143;28;20041;-74
2023/05/09 03:29:32;;;;;;;3.88;1.38;;;;;;;11.59;82.50;101523.91;6261531;28;20056;-74
2023/05/09 03:32:35;;;;;;;3.47;1.38;;;;;;;11.52;82.11;101520.69;6261769;28;20080;-74
2023/05/09 03:35:36;;;;;;;2.38;1.50;;;;;;;11.57;81.62;101515.22;6261261;28;20045;-73
2023/05/09 03:38:37;;;;;;;2.33;1.63;;;;;;;11.55;81.63;101522.34;6260725;28;20041;-74
2023/05/09 03:41:39;;;;;;;2.10;1.42;;;;;;;11.46;81.77;101528.88;6260729;28;20041;-74
2023/05/09 03:44:40;;;;;;;5.40;2.38;;;;;;;11.33;81.62;101517.19;6264041;28;20115;-74
2023/05/09 03:47:43;;;;;;;3.08;1.60;;;;;;;11.43;82.10;101514.06;6261228;28;20045;-74
2023/05/09 03:50:44;;;;;;;3.35;1.88;;;;;;;11.37;80.71;101514.34;6263466;28;20060;-74
2023/05/09 03:53:46;;;;;;;3.42;1.60;;;;;;;11.35;81.61;101516.16;6259953;28;20278;-74
2023/05/09 03:56:48;;;;;;;3.75;1.65;;;;;;;11.30;81.61;101509.41;6259389;28;20088;-74
2023/05/09 03:59:50;;;;;;;6.85;3.13;;;;;;;11.34;82.64;101511.84;6258730;28;20095;-75
2023/05/09 04:02:53;;;;;;;3.60;2.00;;;;;;;11.33;82.86;101501.38;6256718;28;20053;-74
2023/05/09 04:05:54;;;;;;;5.03;1.98;;;;;;;11.40;83.16;101508.97;6265357;28;20053;-74
2023/05/09 04:08:56;;;;;;;4.85;2.00;;;;;;;11.39;82.61;101503.75;6272595;28;20430;-74
2023/05/09 04:11:57;;;;;;;6.35;2.08;;;;;;;11.37;82.85;101506.44;6275647;28;20048;-74
2023/05/09 04:14:59;;;;;;;4.13;2.00;;;;;;;11.38;82.43;101504.66;6275490;28;20045;-74
2023/05/09 04:18:02;;;;;;;5.78;2.10;;;;;;;11.40;83.07;101511.59;6265513;28;20083;-74
2023/05/09 04:21:03;;;;;;;5.50;1.77;;;;;;;11.35;83.37;101510.06;6274604;28;20095;-74
2023/05/09 04:24:06;;;;;;;4.47;2.20;;;;;;;11.38;82.47;101507.31;6276713;28;20048;-73
2023/05/09 04:27:07;;;;;;;4.65;2.38;;;;;;;11.39;83.11;101501.97;6277144;28;20211;-74
2023/05/09 04:30:09;;;;;;;2.83;2.00;;;;;;;11.34;83.84;101501.31;6277029;28;20072;-74
2023/05/09 04:33:12;;;;;;;3.63;1.95;;;;;;;11.43;84.64;101493.00;6277445;28;20049;-73
2023/05/09 04:36:14;;;;;;;3.38;1.83;;;;;;;11.37;83.32;101489.81;6275405;28;20112;-74
2023/05/09 04:39:15;;;;;;;2.05;1.48;;;;;;;11.42;83.59;101487.81;6275352;28;20170;-74
2023/05/09 04:42:17;;;;;;;5.18;2.15;;;;;;;11.43;85.09;101493.00;6276935;28;20045;-74
2023/05/09 04:45:18;;;;;;;3.28;2.00;;;;;;;11.45;84.41;101485.06;6276723;28;20053;-74
2023/05/09 04:48:21;;;;;;;7.78;2.47;;;;;;;11.47;85.10;101492.88;6276729;28;20120;-74
2023/05/09 04:51:23;;;;;;;9.15;2.20;;;;;;;11.40;86.44;101485.25;6276715;28;20126;-74
2023/05/09 04:54:24;;;;;;;8.95;2.33;;;;;;;11.45;86.10;101484.22;6276930;28;20045;-74
2023/05/09 04:57:26;;;;;;;2.95;1.80;;;;;;;11.40;85.19;101479.16;6276484;28;20049;-74
2023/05/09 05:00:27;;;;;;;5.18;2.42;;;;;;;11.41;84.80;101478.22;6276440;28;20124;-74
2023/05/09 05:03:30;;;;;;;5.50;2.58;;;;;;;11.48;87.05;101471.75;6275304;28;20048;-73
2023/05/09 05:06:31;;;;;;;7.05;2.35;;;;;;;11.55;87.09;101469.69;6276516;28;20052;-74
2023/05/09 05:09:33;;;;;;;5.57;2.17;;;;;;;11.53;87.45;101467.13;6275400;28;20056;-73
2023/05/09 05:12:34;;;;;;;6.95;2.10;;;;;;;11.60;87.79;101458.03;6275997;28;20041;-73
2023/05/09 05:15:35;;;;;;;5.40;2.20;;;;;;;11.68;88.32;101460.31;6275989;28;20045;-74
2023/05/09 05:18:38;;;;;;;9.95;2.40;;;;;;;11.74;88.03;101460.03;6275850;28;20052;-73
2023/05/09 05:21:39;;;;;;;3.58;2.35;;;;;;;11.79;88.25;101459.81;6276269;28;20048;-74
2023/05/09 05:24:41;;;;;;;4.40;2.30;;;;;;;11.80;87.91;101454.44;6276071;28;20044;-74
2023/05/09 05:27:42;;;;;;;2.78;1.88;;;;;;;11.92;87.44;101455.69;6275859;28;20076;-74
2023/05/09 05:30:44;;;;;;;2.83;1.70;;;;;;;11.99;87.46;101453.63;6275450;28;20063;-73
2023/05/09 05:33:47;;;;;;;5.07;1.60;;;;;;;12.04;88.45;101449.84;6273998;28;20049;-73
2023/05/09 05:36:48;;;;;;;5.47;2.22;;;;;;;12.11;89.54;101448.59;6275194;28;20045;-73
2023/05/09 05:39:50;;;;;;;5.10;1.88;;;;;;;12.22;90.02;101449.88;6274977;28;20361;-74
2023/05/09 05:42:51;;;;;;;5.97;2.45;;;;;;;12.17;85.96;101439.53;6274739;28;20131;-74
2023/05/09 05:45:53;;;;;;;3.42;2.00;;;;;;;12.25;87.12;101439.19;6275043;28;20053;-74
2023/05/09 05:48:56;;;;;;;2.45;2.00;;;;;;;12.28;86.20;101439.03;6275628;28;20049;-73
2023/05/09 05:51:57;;;;;;;3.97;1.75;;;;;;;12.39;87.50;101439.34;6275390;28;20049;-74
2023/05/09 05:54:59;;;;;;;3.53;2.28;;;;;;;12.42;89.87;101428.66;6275563;28;20044;-73
2023/05/09 05:58:00;;;;;;;6.65;2.20;;;;;;;12.43;89.45;101435.63;6275000;28;20464;-74
2023/05/09 06:01:02;;;;;;;5.55;2.03;;;;;;;12.40;86.60;101435.81;6275492;28;20075;-74
2023/05/09 06:04:04;;;;;;;5.38;2.28;;;;;;;12.43;88.40;101433.84;6270374;28;20357;-74
2023/05/09 06:07:06;;;;;;;3.47;2.38;;;;;;;12.50;90.30;101436.19;6253797;28;20053;-74
2023/05/09 06:10:08;;;;;;;4.10;2.55;;;;;;;12.52;90.08;101431.69;6272629;28;20123;-74
2023/05/09 06:13:09;;;;;;;5.35;2.70;;;;;;;12.57;90.51;101435.78;6274207;28;20044;-74
2023/05/09 06:16:11;;;;;;;4.97;2.30;;;;;;;12.59;89.96;101435.72;6274187;28;20131;-74
2023/05/09 06:19:14;;;;;;;6.00;2.65;;;;;;;12.60;88.55;101422.47;6273994;28;20438;-74
2023/05/09 06:22:15;;;;;;;3.92;2.40;;;;;;;12.65;89.02;101422.22;6274968;28;20049;-73
2023/05/09 06:25:17;;;;;;;3.33;2.10;;;;;;;12.73;90.07;101421.84;6274862;28;20052;-74
2023/05/09 06:28:18;;;;;;;4.95;2.38;;;;;;;12.74;88.37;101418.25;6274396;28;20139;-74
2023/05/09 06:31:19;;;;;;;3.08;2.20;;;;;;;12.75;88.37;101409.41;6274878;28;20044;-74
2023/05/09 06:34:22;;;;;;;6.82;2.53;;;;;;;12.82;89.16;101413.44;6274864;28;20048;-74
2023/05/09 06:37:23;;;;;;;5.57;2.40;;;;;;;12.88;89.36;101411.31;6274554;28;20049;-74
2023/05/09 06:40:25;;;;;;;3.63;2.25;;;;;;;12.92;89.47;101399.69;6271893;28;20044;-74
2023/05/09 06:43:26;;;;;;;5.13;2.60;;;;;;;12.90;89.31;101396.28;6274196;28;20037;-74
2023/05/09 06:46:28;;;;;;;3.80;2.30;;;;;;;12.92;90.38;101388.28;6264231;28;20041;-74
2023/05/09 06:49:30;;;;;;;4.85;2.30;;;;;;;12.97;90.18;101388.88;6272545;28;20068;-74
2023/05/09 06:52:32;;;;;;;4.78;3.28;;;;;;;12.96;89.89;101379.28;6271340;28;20045;-74
2023/05/09 06:55:33;;;;;;;4.75;2.60;;;;;;;13.02;90.05;101380.72;6274205;28;20049;-74
2023/05/09 06:58:35;;;;;;;4.75;2.50;;;;;;;13.07;90.20;101382.19;6274060;28;20052;-74
2023/05/09 07:01:36;;;;;;;4.15;2.55;;;;;;;13.18;90.21;101377.19;6274979;28;20432;-74
2023/05/09 07:04:39;;;;;;;3.03;2.05;;;;;;;13.28;90.74;101380.22;6273895;28;20041;-74
2023/05/09 07:07:40;;;;;;;7.18;2.65;;;;;;;13.41;89.23;101368.06;6266767;28;20052;-74
2023/05/09 07:10:41;;;;;;;4.38;2.40;;;;;;;13.50;89.82;101361.41;6269830;28;20052;-74
2023/05/09 07:13:43;;;;;;;5.65;2.40;;;;;;;13.60;89.19;101361.75;6271062;28;20439;-74
2023/05/09 07:16:45;;;;;;;2.90;2.28;;;;;;;13.64;89.19;101350.91;6270576;28;20052;-73
2023/05/09 07:19:47;;;;;;;5.57;2.67;;;;;;;13.70;90.33;101353.19;6263293;28;20056;-74
2023/05/09 07:22:49;;;;;;;3.65;2.20;;;;;;;13.80;89.46;101350.03;6266037;28;20045;-74
2023/05/09 07:25:55;;;;;;;5.68;2.47;;;;;;;13.93;87.16;101345.75;6265977;28;20053;-74
2023/05/09 07:28:57;;;;;;;3.78;2.45;;;;;;;14.04;88.78;101346.00;6258248;28;20056;-72
2023/05/09 07:31:58;;;;;;;3.17;2.33;;;;;;;14.13;86.50;101341.97;6275276;28;20158;-73
2023/05/09 07:35:01;;;;;;;3.60;2.05;;;;;;;14.23;84.83;101343.13;6277855;28;20056;-72
2023/05/09 07:38:05;;;;;;;6.25;2.72;;;;;;;14.27;87.04;101328.78;6277736;28;20347;-73
2023/05/09 07:41:06;;;;;;;5.22;2.25;;;;;;;14.34;87.34;101330.09;6278093;28;20049;-73
2023/05/09 07:44:08;;;;;;;3.67;2.40;;;;;;;14.46;88.85;101317.94;6265226;28;20052;-74
2023/05/09 07:47:10;;;;;;;5.03;2.47;;;;;;;14.64;87.04;101316.03;6270768;28;20057;-73
2023/05/09 07:50:13;;;;;;;5.30;2.70;;;;;;;14.74;87.49;101311.00;6276837;28;20145;-73
2023/05/09 07:53:14;;;;;;;6.28;2.58;;;;;;;14.94;85.29;101300.91;6272725;28;20052;-73
2023/05/09 07:56:15;;;;;;;7.18;2.50;;;;;;;15.06;88.21;101298.41;6274761;28;20048;-73
2023/05/09 07:59:17;;;;;;;4.03;2.38;;;;;;;15.21;86.83;101292.13;6277828;28;20060;-73
2023/05/09 08:02:18;;;;;;;4.43;2.25;;;;;;;15.30;87.82;101293.34;6278081;28;20041;-73
2023/05/09 08:05:21;;;;;;;4.32;2.53;;;;;;;15.41;87.27;101296.16;6257158;28;20111;-73
2023/05/09 08:08:23;;;;;;;3.50;2.22;;;;;;;15.50;86.70;101281.47;6255755;28;20045;-73
2023/05/09 08:11:25;;;;;;;6.05;3.08;;;;;;;15.58;85.54;101285.31;6265472;28;20437;-73
2023/05/09 08:14:26;;;;;;;3.90;2.65;;;;;;;15.66;84.66;101266.28;6266272;28;20046;-74
2023/05/09 08:17:27;;;;;;;3.03;2.13;;;;;;;15.71;83.25;101262.41;6266078;28;20044;-73
2023/05/09 08:20:30;;;;;;;3.60;2.30;;;;;;;15.84;83.27;101270.34;6272973;28;20045;-72
2023/05/09 08:23:32;;;;;;;4.28;2.53;;;;;;;15.96;84.09;101266.03;6274224;28;20422;-74
2023/05/09 08:26:33;;;;;;;6.30;2.42;;;;;;;16.17;82.23;101253.13;6268435;28;20441;-73
2023/05/09 08:29:34;;;;;;;6.68;3.30;;;;;;;16.39;81.10;101244.50;6267316;28;20438;-72
2023/05/09 08:32:36;;;;;;;5.47;3.22;;;;;;;16.39;79.69;101247.16;6267334;28;20357;-74
2023/05/09 08:35:39;;;;;;;5.28;2.90;;;;;;;16.36;84.49;101244.75;6267074;28;20341;-74
2023/05/09 08:38:40;;;;;;;3.50;2.40;;;;;;;16.41;84.48;101246.13;6268992;28;20141;-73
2023/05/09 08:41:42;;;;;;;4.50;2.53;;;;;;;16.48;83.15;101239.41;6275970;28;20049;-74
2023/05/09 08:44:44;;;;;;;5.22;2.83;;;;;;;16.64;82.00;101241.00;6277024;28;20049;-74
2023/05/09 08:47:46;;;;;;;4.68;3.28;;;;;;;16.77;82.19;101235.72;6276704;28;20349;-75
2023/05/09 08:50:49;;;;;;;7.00;2.80;;;;;;;16.87;83.22;101232.28;6276834;28;20453;-74
2023/05/09 08:53:51;;;;;;;5.75;3.10;;;;;;;16.95;81.76;101237.03;6276754;28;20373;-74
2023/05/09 08:56:53;;;;;;;7.95;3.38;;;;;;;16.90;81.25;101237.38;6276461;28;20053;-74
2023/05/09 08:59:56;;;;;;;4.03;2.92;;;;;;;16.87;82.04;101236.75;6269833;28;20082;-74
2023/05/09 09:03:00;;;;;;;5.57;3.20;;;;;;;16.86;81.24;101232.38;6276485;28;20331;-74
2023/05/09 09:06:04;;;;;;;8.73;4.28;;;;;;;16.91;80.60;101236.41;6276551;28;20052;-73
2023/05/09 09:09:07;;;;;;;9.27;4.88;;;;;;;16.89;80.51;101219.72;6276187;28;20052;-74
2023/05/09 09:12:10;;;;;;;7.65;3.25;;;;;;;16.87;81.77;101205.72;6269400;28;20077;-74
2023/05/09 09:15:16;;;;;;;4.35;3.00;;;;;;;16.90;82.30;101205.50;6276265;28;20049;-74
2023/05/09 09:18:22;;;;;;;6.00;2.95;;;;;;;17.02;82.95;101200.25;6265353;28;20063;-74
2023/05/09 09:21:26;;;;;;;8.93;3.47;;;;;;;17.15;79.08;101207.22;6268697;28;20047;-73
2023/05/09 09:24:27;;;;;;;4.43;3.08;;;;;;;17.19;81.85;101198.06;6274144;28;20095;-74
2023/05/09 09:27:29;;;;;;;4.07;2.78;;;;;;;17.21;81.78;101198.81;6276008;28;20056;-71
2023/05/09 09:30:31;;;;;;;4.93;3.40;;;;;;;17.31;81.28;101195.47;6275520;28;20045;-71
2023/05/09 09:33:32;;;;;;;5.35;3.40;;;;;;;17.33;84.48;101193.53;6271614;28;20041;-72
2023/05/09 09:36:35;;;;;;;8.82;2.70;;;;;;;17.33;83.60;101190.88;6267818;28;20059;-73
2023/05/09 09:39:37;;;;;;;6.43;3.58;;;;;;;17.31;84.23;101176.88;6272869;28;20451;-73
2023/05/09 09:42:42;;;;;;;5.93;3.20;;;;;;;17.39;82.71;101175.31;6273647;28;20049;-74
2023/05/09 09:45:48;;;;;;;4.68;2.85;;;;;;;17.44;85.34;101162.56;6275583;28;20124;-74
2023/05/09 09:48:53;;;;;;;7.20;3.45;;;;;;;17.56;82.34;101154.59;6275189;28;20369;-73
2023/05/09 09:51:57;;;;;;;5.82;2.97;;;;;;;17.65;81.54;101149.41;6275564;28;20214;-74
2023/05/09 09:55:00;;;;;;;5.85;3.42;;;;;;;17.77;79.96;101137.03;6258791;28;20064;-74
2023/05/09 09:58:01;;;;;;;4.57;2.95;;;;;;;17.85;81.49;101133.75;6274675;28;20450;-74
2023/05/09 10:01:06;;;;;;;4.88;3.08;;;;;;;18.09;80.53;101129.19;6261926;28;20052;-74
2023/05/09 10:04:08;;;;;;;4.88;3.03;;;;;;;18.30;77.66;101136.44;6266956;28;20503;-74
2023/05/09 10:07:11;;;;;;;7.90;3.50;;;;;;;18.49;76.52;101131.34;6263529;28;20356;-73
2023/05/09 10:10:13;;;;;;;4.40;2.90;;;;;;;18.54;76.54;101126.50;6273795;28;20048;-73
2023/05/09 10:13:14;;;;;;;3.92;2.42;;;;;;;18.59;76.30;101121.66;6271642;28;20056;-74
2023/05/09 10:16:16;;;;;;;8.30;3.13;;;;;;;18.63;76.27;101119.59;6269192;28;20452;-74
2023/05/09 10:19:19;;;;;;;5.68;3.03;;;;;;;18.76;73.30;101107.00;6274934;28;20060;-75
2023/05/09 10:22:24;;;;;;;8.32;3.08;;;;;;;18.73;74.38;101108.09;6275064;28;20044;-74
2023/05/09 10:25:32;;;;;;;5.15;2.97;;;;;;;18.67;76.49;101097.91;6274980;28;20318;-73
2023/05/09 10:28:35;;;;;;;7.22;3.05;;;;;;;18.71;75.79;101085.22;6262928;28;20041;-71
2023/05/09 10:31:40;;;;;;;7.63;3.17;;;;;;;18.83;73.48;101083.38;6274930;28;20044;-72
2023/05/09 10:34:43;;;;;;;4.75;2.53;;;;;;;18.99;73.58;101081.13;6266487;28;20063;-72
2023/05/09 10:37:47;;;;;;;5.15;3.40;;;;;;;19.13;71.62;101064.00;6272596;28;20048;-72
2023/05/09 10:40:49;;;;;;;4.32;2.80;;;;;;;19.17;74.56;101062.75;6272419;28;20345;-72
2023/05/09 10:43:51;;;;;;;4.03;3.05;;;;;;;19.35;73.88;101060.31;6270069;28;20056;-72
2023/05/09 10:46:53;;;;;;;9.18;3.33;;;;;;;19.54;72.59;101055.13;6270548;28;20053;-72
2023/05/09 10:49:55;;;;;;;4.25;3.13;;;;;;;19.57;71.91;101044.19;6272085;28;20060;-72
2023/05/09 10:53:17;;;;;;;3.70;2.63;;;;;;;19.56;75.18;101036.31;6273001;28;20060;-72
2023/05/09 10:56:26;;;;;;;5.95;3.50;;;;;;;19.71;74.46;101049.22;6260630;28;20356;-72
2023/05/09 10:59:36;;;;;;;7.35;3.60;;;;;;;19.89;71.13;101044.06;6269133;28;20056;-72
2023/05/09 11:02:38;;;;;;;5.15;3.28;;;;;;;19.84;70.49;101035.63;6261155;28;20120;-73
2023/05/09 11:05:39;;;;;;;4.95;3.28;;;;;;;19.70;74.27;101020.84;6268759;28;20083;-72
2023/05/09 11:08:42;;;;;;;4.97;3.22;;;;;;;19.69;75.14;101021.81;6269245;28;20047;-72
2023/05/09 11:11:51;;;;;;;6.55;3.38;;;;;;;19.65;74.30;101019.56;6277011;28;20052;-73
2023/05/09 11:14:53;;;;;;;4.18;3.05;;;;;;;19.60;73.72;101016.41;6279108;28;20068;-73
2023/05/09 11:18:06;;;;;;;4.22;2.88;;;;;;;19.55;71.89;101014.16;6278926;28;20057;-72
2023/05/09 11:21:08;;;;;;;3.95;3.20;;;;;;;19.52;72.08;101001.09;6278745;28;20078;-71
2023/05/09 11:24:18;;;;;;;7.38;3.35;;;;;;;19.69;71.85;101007.66;6278285;28;20048;-71
2023/05/09 11:27:21;;;;;;;3.88;2.58;;;;;;;19.87;73.88;101003.38;6265737;28;20048;-72
2023/05/09 11:30:22;;;;;;;3.97;2.60;;;;;;;20.09;70.76;100998.78;6278262;28;20461;-73
2023/05/09 11:33:27;;;;;;;6.40;3.50;;;;;;;20.37;70.46;101008.66;6275862;28;20417;-73
2023/05/09 11:36:32;;;;;;;3.78;2.50;;;;;;;20.69;72.63;100992.41;6269496;28;20045;-73
2023/05/09 11:39:36;;;;;;;5.53;3.40;;;;;;;20.87;66.94;101005.06;6270709;28;20044;-72
2023/05/09 11:42:42;;;;;;;5.90;3.10;;;;;;;21.01;67.79;100996.59;6275480;28;20068;-72
2023/05/09 11:45:46;;;;;;;4.55;3.08;;;;;;;21.07;66.19;100990.66;6272675;28;20111;-72
2023/05/09 11:48:48;;;;;;;4.15;2.88;;;;;;;21.08;66.30;100987.03;6270964;28;20054;-72
2023/05/09 11:51:50;;;;;;;6.10;3.25;;;;;;;21.01;66.75;100976.06;6267359;28;20049;-72
2023/05/09 11:54:53;;;;;;;4.38;3.10;;;;;;;21.07;63.67;100977.31;6277664;28;20132;-71
2023/05/09 11:57:54;;;;;;;4.75;2.65;;;;;;;21.11;68.28;100977.84;6277964;28;20053;-72
2023/05/09 12:00:56;;;;;;;4.30;2.75;;;;;;;20.91;65.89;100972.56;6277708;28;20049;-72
2023/05/09 12:03:59;;;;;;;3.50;2.85;;;;;;;20.77;68.30;100959.66;6277915;28;20437;-70
2023/05/09 12:07:01;;;;;;;3.50;2.75;;;;;;;20.72;66.94;100951.22;6277707;28;20045;-69
2023/05/09 12:10:06;;;;;;;3.92;2.40;;;;;;;20.72;67.95;100951.22;6268752;28;20058;-70
2023/05/09 12:13:10;;;;;;;4.25;2.63;;;;;;;20.69;67.88;100951.50;6270574;28;20362;-69
2023/05/09 12:16:11;;;;;;;3.72;2.83;;;;;;;20.59;67.98;100938.16;6277294;28;20049;-69
2023/05/09 12:19:12;;;;;;;5.97;2.63;;;;;;;20.54;67.52;100942.25;6277645;28;20349;-69
2023/05/09 12:22:14;;;;;;;3.90;2.53;;;;;;;20.63;69.27;100931.56;6277447;28;20354;-69
2023/05/09 12:25:16;;;;;;;4.03;2.60;;;;;;;20.86;68.63;100931.25;6277622;28;20450;-69
2023/05/09 12:28:19;;;;;;;3.65;2.60;;;;;;;21.01;67.47;100937.81;6277315;28;20063;-69
2023/05/09 12:31:22;;;;;;;3.45;2.50;;;;;;;20.87;64.45;100940.94;6277207;28;20045;-69
2023/05/09 12:34:23;;;;;;;3.70;2.45;;;;;;;20.81;67.53;100930.84;6277211;28;20037;-69
2023/05/09 12:37:25;;;;;;;5.57;2.80;;;;;;;20.76;63.08;100931.25;6272723;28;20045;-69
2023/05/09 12:40:28;;;;;;;8.82;3.60;;;;;;;20.70;67.65;100926.47;6276781;28;20049;-70
2023/05/09 12:43:30;;;;;;;3.22;2.38;;;;;;;20.69;65.31;100919.47;6277221;28;20049;-70
2023/05/09 12:46:32;;;;;;;5.22;2.80;;;;;;;20.71;66.24;100920.13;6276798;28;20353;-69
2023/05/09 12:49:36;;;;;;;3.05;2.50;;;;;;;20.65;65.90;100920.72;6276733;28;20045;-69
2023/05/09 12:52:39;;;;;;;4.05;2.50;;;;;;;20.59;66.75;100911.47;6276704;28;20044;-69
2023/05/09 12:55:42;;;;;;;3.50;2.72;;;;;;;20.54;68.05;100912.88;6276753;28;20048;-70
2023/05/09 12:58:48;;;;;;;4.95;2.83;;;;;;;20.51;66.49;100903.31;6276417;28;20052;-70
2023/05/09 13:01:55;;;;;;;4.03;2.67;;;;;;;20.49;67.80;100906.13;6276621;28;20055;-69
2023/05/09 13:05:09;;;;;;;4.38;2.67;;;;;;;20.45;66.01;100907.38;6276531;28;20048;-69
2023/05/09 13:08:10;;;;;;;4.00;2.45;;;;;;;20.36;68.18;100894.03;6276308;28;20049;-70
2023/05/09 13:11:15;;;;;;;3.33;2.45;;;;;;;20.31;68.24;100885.63;6276245;28;20076;-69
2023/05/09 13:14:17;;;;;;;4.00;2.70;;;;;;;20.34;68.67;100879.97;6276012;28;20164;-70
2023/05/09 13:17:18;;;;;;;4.07;2.55;;;;;;;20.43;69.12;100874.63;6276158;28;20068;-70
2023/05/09 13:20:20;;;;;;;3.58;2.60;;;;;;;20.43;66.37;100871.09;6275794;28;20053;-70
2023/05/09 13:23:21;;;;;;;6.50;2.60;;;;;;;20.55;66.84;100859.31;6266957;28;20118;-70
2023/05/09 13:26:25;;;;;;;4.07;2.53;;;;;;;20.71;66.02;100861.38;6269546;28;20045;-69
2023/05/09 13:29:27;;;;;;;3.20;2.45;;;;;;;20.96;66.92;100854.56;6274805;28;20049;-70
2023/05/09 13:32:28;;;;;;;3.13;2.42;;;;;;;21.29;64.33;100847.81;6275719;28;20045;-70
2023/05/09 13:35:29;;;;;;;4.55;2.10;;;;;;;21.75;62.50;100843.31;6275891;28;20045;-70
2023/05/09 13:38:34;;;;;;;3.83;2.55;;;;;;;22.18;62.31;100839.91;6275354;28;20349;-70
2023/05/09 13:41:36;;;;;;;2.92;2.28;;;;;;;22.56;61.56;100832.47;6275949;28;20450;-70
2023/05/09 13:44:38;;;;;;;2.72;1.95;;;;;;;22.78;60.57;100829.28;6275524;28;20037;-70
2023/05/09 13:47:39;;;;;;;3.05;2.17;;;;;;;22.88;57.25;100831.00;6275311;28;20067;-70
2023/05/09 13:50:41;;;;;;;3.50;2.50;;;;;;;22.92;56.41;100821.66;6272468;28;20053;-70
2023/05/09 13:53:42;;;;;;;2.88;2.05;;;;;;;22.80;57.03;100810.38;6267055;28;20369;-70
2023/05/09 13:56:45;;;;;;;3.45;2.60;;;;;;;22.75;58.77;100810.81;6268433;28;20053;-70
2023/05/09 13:59:46;;;;;;;5.40;2.65;;;;;;;23.02;55.63;100808.97;6267996;28;20044;-70
2023/05/09 14:02:47;;;;;;;4.80;2.20;;;;;;;23.22;54.77;100799.69;6275432;28;20048;-70
2023/05/09 14:05:49;;;;;;;3.75;2.42;;;;;;;23.48;55.07;100796.91;6275093;28;20075;-70
2023/05/09 14:08:50;;;;;;;2.45;2.00;;;;;;;23.54;55.63;100792.72;6275120;28;20056;-75